Terminal Aerodrome Forecast
Issued by NWS Flagstaff, AZ

Home | Current Version | Previous Version | Text Only | Print | Product List | Glossary On
Versions: 1 2 3 4 5 6 7 8 9 10 11 12 13 14 15 16 17 18 19 20
000
FTUS45 KFGZ 301800 AAA
TAFINW
TAF AMD
KINW 301800Z 3018/3118 10009KT 6SM -SHRA SCT030 OVC060
      TEMPO 3019/3023 4SM -RA BKN025 OVC050
     FM310200 VRB05KT P6SM VCSH SCT030 OVC060=

USA.gov is the U.S. government's official web portal to all federal, state and local government web resources and services.